Time;durP1;ratioP1;P1;durP2;ratioP2;P2;SDS_P1;SDS_P2;PMS_P1;PMS_P2;Temp;Humidity;BMP_temperature;BMP_pressure;BME280_temperature;BME280_humidity;BME280_pressure;Samples;Min_cycle;Max_cycle;Signal;HPM_P1;HPM_P2
2021/11/27 00:00:44;;;;;;;16.60;8.02;;;-2.50;99.90;;;;;;6132543;23;20010;-76
2021/11/27 00:03:12;;;;;;;11.27;7.95;;;-2.60;99.90;;;;;;6125410;23;20037;-77
2021/11/27 00:05:41;;;;;;;12.63;10.02;;;-2.60;99.90;;;;;;6131243;23;20014;-77
2021/11/27 00:08:12;;;;;;;8.55;7.13;;;-2.60;99.90;;;;;;6132828;23;20010;-77
2021/11/27 00:10:43;;;;;;;16.15;8.52;;;-2.50;99.90;;;;;;6126422;23;20533;-77
2021/11/27 00:13:12;;;;;;;16.10;8.97;;;-2.50;99.90;;;;;;6133041;23;20021;-77
2021/11/27 00:15:41;;;;;;;12.93;7.80;;;-2.40;99.90;;;;;;6123879;23;20254;-77
2021/11/27 00:18:10;;;;;;;14.73;9.30;;;-2.40;99.90;;;;;;6131549;23;20084;-77
2021/11/27 00:20:51;;;;;;;18.08;11.20;;;-2.20;99.90;;;;;;6134131;23;20021;-77
2021/11/27 00:23:21;;;;;;;16.80;8.70;;;-2.10;99.90;;;;;;6126753;23;20029;-77
2021/11/27 00:25:49;;;;;;;10.38;7.18;;;-2.00;99.90;;;;;;6132110;23;20022;-77
2021/11/27 00:28:17;;;;;;;14.40;8.98;;;-2.10;99.90;;;;;;6134238;23;20029;-77
2021/11/27 00:30:45;;;;;;;12.45;7.38;;;-2.20;99.90;;;;;;6102646;23;20022;-77
2021/11/27 00:33:14;;;;;;;8.95;6.28;;;-2.30;99.90;;;;;;6108552;23;20013;-77
2021/11/27 00:35:42;;;;;;;13.98;9.45;;;-2.30;99.90;;;;;;6124795;23;20049;-77
2021/11/27 00:38:10;;;;;;;10.73;7.63;;;-2.20;99.90;;;;;;6131421;23;20018;-77
2021/11/27 00:40:41;;;;;;;14.82;8.38;;;-2.20;99.90;;;;;;6107468;23;20452;-77
2021/11/27 00:43:10;;;;;;;11.50;7.45;;;-2.20;99.90;;;;;;6101496;23;20354;-77
2021/11/27 00:45:39;;;;;;;9.25;7.78;;;-2.10;99.90;;;;;;6133853;23;20456;-77
2021/11/27 00:48:10;;;;;;;11.77;6.65;;;-2.10;99.90;;;;;;6124416;23;20026;-77
2021/11/27 00:50:43;;;;;;;12.30;8.45;;;-2.10;99.90;;;;;;6103347;23;20030;-77
2021/11/27 00:53:12;;;;;;;16.08;10.80;;;-2.10;99.90;;;;;;6103604;23;20033;-77
2021/11/27 00:55:40;;;;;;;11.15;6.78;;;-2.00;99.90;;;;;;6123934;23;20033;-77
2021/11/27 00:58:08;;;;;;;12.07;7.95;;;-2.10;99.90;;;;;;6104356;23;20026;-77
2021/11/27 01:00:48;;;;;;;11.00;7.18;;;-2.10;99.90;;;;;;6107393;23;20434;-77
2021/11/27 01:03:18;;;;;;;13.23;8.02;;;-2.10;99.90;;;;;;6126498;23;20022;-77
2021/11/27 01:05:48;;;;;;;9.23;6.68;;;-2.00;99.90;;;;;;6106385;23;20334;-77
2021/11/27 01:08:16;;;;;;;10.80;8.65;;;-1.90;99.90;;;;;;6099188;23;20583;-77
2021/11/27 01:10:51;;;;;;;10.35;6.85;;;-1.90;99.90;;;;;;6127295;23;20018;-77
2021/11/27 01:13:19;;;;;;;12.15;7.90;;;-1.80;99.90;;;;;;6098242;23;20022;-77
2021/11/27 01:15:48;;;;;;;14.95;9.20;;;-1.80;99.90;;;;;;6097743;23;20026;-76
2021/11/27 01:18:16;;;;;;;10.68;7.15;;;-1.70;99.90;;;;;;6130291;23;20481;-77
2021/11/27 01:20:49;;;;;;;13.00;7.05;;;-1.70;99.90;;;;;;6107805;23;20021;-77
2021/11/27 01:23:18;;;;;;;13.57;8.60;;;-1.70;99.90;;;;;;6100188;23;20323;-77
2021/11/27 01:25:46;;;;;;;13.98;8.93;;;-1.60;99.90;;;;;;6131533;23;20014;-76
2021/11/27 01:28:17;;;;;;;14.00;7.45;;;-1.70;99.90;;;;;;6134139;23;20018;-77
2021/11/27 01:30:49;;;;;;;14.27;8.43;;;-1.50;99.90;;;;;;6127970;23;20036;-77
2021/11/27 01:33:18;;;;;;;10.18;8.50;;;-1.70;99.90;;;;;;6108051;23;20022;-77
2021/11/27 01:35:46;;;;;;;20.17;8.75;;;-1.70;99.90;;;;;;6124271;23;20025;-77
2021/11/27 01:38:14;;;;;;;10.15;7.00;;;-1.60;99.90;;;;;;6104703;23;20037;-77
2021/11/27 01:40:42;;;;;;;17.30;8.13;;;-1.60;99.90;;;;;;6106398;23;20014;-77
2021/11/27 01:43:11;;;;;;;10.90;7.00;;;-1.70;99.90;;;;;;6126501;23;20345;-77
2021/11/27 01:45:39;;;;;;;7.05;5.57;;;-1.70;99.90;;;;;;6133078;23;20594;-77
2021/11/27 01:48:14;;;;;;;18.33;9.00;;;-1.70;99.90;;;;;;6134032;23;20022;-78
2021/11/27 01:51:16;;;;;;;13.50;8.70;;;-1.70;99.90;;;;;;6127939;23;20022;-77
2021/11/27 01:53:53;;;;;;;11.55;7.35;;;-1.60;99.90;;;;;;6052224;23;20036;-77
2021/11/27 01:56:25;;;;;;;15.93;9.00;;;-1.50;99.90;;;;;;6108004;23;20017;-78
2021/11/27 01:58:54;;;;;;;15.57;10.38;;;-1.60;99.90;;;;;;6102021;23;20738;-77
2021/11/27 02:01:52;;;;;;;13.98;8.23;;;-1.70;99.90;;;;;;6107451;23;20010;-77
2021/11/27 02:05:20;;;;;;;14.25;9.32;;;-1.80;99.90;;;;;;6107761;23;20025;-77
2021/11/27 02:08:28;;;;;;;12.40;8.05;;;-1.70;99.90;;;;;;6105631;23;20032;-77
2021/11/27 02:11:33;;;;;;;12.00;6.90;;;-1.60;99.90;;;;;;6100431;23;20022;-77
2021/11/27 02:14:01;;;;;;;9.52;7.97;;;-1.60;99.90;;;;;;6105108;23;20026;-77
2021/11/27 02:16:32;;;;;;;11.90;7.70;;;-1.60;99.90;;;;;;6084352;23;20014;-78
2021/11/27 02:19:00;;;;;;;13.32;7.97;;;-1.50;99.90;;;;;;6100689;23;20371;-77
2021/11/27 02:21:28;;;;;;;13.02;8.73;;;-1.50;99.90;;;;;;6132834;23;20032;-77
2021/11/27 02:23:56;;;;;;;12.90;8.80;;;-1.40;99.90;;;;;;6096406;23;20026;-78
2021/11/27 02:26:34;;;;;;;13.88;8.85;;;-1.40;99.90;;;;;;6103795;23;20596;-78
2021/11/27 02:29:18;;;;;;;9.70;8.13;;;-1.40;99.90;;;;;;6107304;23;20310;-78
2021/11/27 02:31:46;;;;;;;11.73;7.18;;;-1.40;99.90;;;;;;6098004;23;20029;-77
2021/11/27 02:34:15;;;;;;;14.90;7.00;;;-1.40;99.90;;;;;;6104177;23;20354;-77
2021/11/27 02:36:47;;;;;;;22.15;11.85;;;-1.40;99.90;;;;;;6107948;23;20014;-78
2021/11/27 02:39:16;;;;;;;8.20;7.10;;;-1.40;99.90;;;;;;6099259;23;20022;-77
2021/11/27 02:41:45;;;;;;;8.07;7.22;;;-1.40;99.90;;;;;;6096888;23;20034;-77
2021/11/27 02:44:13;;;;;;;8.80;6.18;;;-1.30;99.90;;;;;;6107732;23;20517;-77
2021/11/27 02:46:41;;;;;;;13.40;8.35;;;-1.20;99.90;;;;;;6102413;23;20022;-77
2021/11/27 02:49:09;;;;;;;9.68;5.70;;;-1.20;99.90;;;;;;6133176;23;20021;-77
2021/11/27 02:51:37;;;;;;;9.20;5.50;;;-1.30;99.90;;;;;;6123798;23;20030;-77
2021/11/27 02:54:05;;;;;;;13.07;6.38;;;-1.30;99.90;;;;;;6123796;23;20038;-77
2021/11/27 02:56:33;;;;;;;12.75;8.52;;;-1.20;99.90;;;;;;6106835;23;20010;-77
2021/11/27 02:59:13;;;;;;;15.57;8.35;;;-1.50;99.90;;;;;;6100520;23;20290;-77
2021/11/27 03:01:44;;;;;;;14.73;8.15;;;-1.50;99.90;;;;;;6106002;23;20014;-77
2021/11/27 03:04:12;;;;;;;11.20;7.63;;;-1.50;99.90;;;;;;6106887;23;20014;-78
2021/11/27 03:06:42;;;;;;;11.82;7.72;;;-1.50;99.90;;;;;;6101925;23;20018;-78
2021/11/27 03:09:13;;;;;;;10.18;6.85;;;-1.50;99.90;;;;;;6106852;23;20014;-77
2021/11/27 03:11:41;;;;;;;5.65;4.13;;;-1.50;99.90;;;;;;6123630;23;20063;-77
2021/11/27 03:14:08;;;;;;;9.30;5.70;;;-1.60;99.90;;;;;;6130170;23;20357;-77
2021/11/27 03:16:38;;;;;;;10.13;6.50;;;-1.50;99.90;;;;;;6107493;23;20017;-77
2021/11/27 03:19:28;;;;;;;8.73;6.30;;;-1.40;99.90;;;;;;6124855;23;20026;-78
2021/11/27 03:21:56;;;;;;;10.55;7.32;;;-1.10;99.90;;;;;;6104535;23;20030;-77
2021/11/27 03:24:24;;;;;;;6.63;4.30;;;-1.20;99.90;;;;;;6132745;23;20018;-77
2021/11/27 03:26:52;;;;;;;8.10;6.35;;;-1.30;99.90;;;;;;6101795;23;20033;-77
2021/11/27 03:29:20;;;;;;;8.40;5.78;;;-1.20;99.90;;;;;;6107501;23;20036;-77
2021/11/27 03:31:48;;;;;;;10.23;6.53;;;-1.10;99.90;;;;;;6097025;23;20026;-78
2021/11/27 03:34:27;;;;;;;8.32;5.75;;;-1.10;99.90;;;;;;6102622;23;20037;-77
2021/11/27 03:36:56;;;;;;;10.45;8.05;;;-1.10;99.90;;;;;;6107483;23;20065;-77
2021/11/27 03:39:24;;;;;;;9.98;7.00;;;-1.10;99.90;;;;;;6098378;23;20038;-78
2021/11/27 03:41:53;;;;;;;9.35;6.80;;;-1.10;99.90;;;;;;6105089;23;20022;-78
2021/11/27 03:44:21;;;;;;;9.02;5.55;;;-1.10;99.90;;;;;;6107076;23;20013;-77
2021/11/27 03:46:49;;;;;;;5.93;4.22;;;-1.00;99.90;;;;;;6101528;23;20030;-77
2021/11/27 03:49:22;;;;;;;13.75;7.20;;;-1.00;99.90;;;;;;6133108;23;20014;-77
2021/11/27 03:51:51;;;;;;;13.40;8.00;;;-1.00;99.90;;;;;;6074987;23;20026;-77
2021/11/27 03:54:20;;;;;;;10.52;7.20;;;-1.00;99.90;;;;;;6099203;23;20022;-78
2021/11/27 03:56:51;;;;;;;12.20;7.07;;;-1.00;99.90;;;;;;6134648;23;20582;-78
2021/11/27 03:59:20;;;;;;;7.35;5.82;;;-1.00;99.90;;;;;;6101027;23;20026;-77
2021/11/27 04:01:48;;;;;;;6.95;4.80;;;-1.00;99.90;;;;;;6132501;23;20016;-77
2021/11/27 04:04:19;;;;;;;8.75;5.55;;;-1.00;99.90;;;;;;6108735;23;20445;-77
2021/11/27 04:06:47;;;;;;;9.20;6.82;;;-1.00;99.90;;;;;;6129192;23;20026;-77
2021/11/27 04:09:16;;;;;;;9.40;6.95;;;-0.90;99.90;;;;;;6107673;23;20021;-77
2021/11/27 04:11:44;;;;;;;9.07;5.25;;;-0.90;99.90;;;;;;6074192;23;20457;-77
2021/11/27 04:14:20;;;;;;;7.07;5.47;;;-0.90;99.90;;;;;;6105155;23;20033;-78
2021/11/27 04:16:56;;;;;;;7.85;5.82;;;-0.90;99.90;;;;;;6108693;23;20018;-78
2021/11/27 04:19:24;;;;;;;7.40;5.63;;;-0.80;99.90;;;;;;6100352;23;20026;-77
2021/11/27 04:21:52;;;;;;;9.10;5.85;;;-0.90;99.90;;;;;;6106311;23;20318;-78
2021/11/27 04:24:20;;;;;;;7.50;5.30;;;-0.90;99.90;;;;;;6108162;23;20048;-77
2021/11/27 04:26:48;;;;;;;8.68;5.65;;;-0.90;99.90;;;;;;6102867;23;20018;-77
2021/11/27 04:29:23;;;;;;;7.40;4.45;;;-0.90;99.90;;;;;;6108696;23;20021;-77
2021/11/27 04:31:59;;;;;;;6.60;3.95;;;-0.80;99.90;;;;;;6124431;23;20025;-85
2021/11/27 04:34:58;;;;;;;15.88;4.43;;;-0.80;99.90;;;;;;6056079;23;20058;-77
2021/11/27 04:37:26;;;;;;;5.13;3.85;;;-0.80;99.90;;;;;;6108568;23;20017;-77
2021/11/27 04:39:54;;;;;;;3.60;3.25;;;-0.60;99.90;;;;;;6073647;23;20018;-77
2021/11/27 04:42:22;;;;;;;6.63;5.13;;;-0.60;99.90;;;;;;6104163;23;20026;-77
2021/11/27 04:44:50;;;;;;;7.95;4.40;;;-0.50;99.90;;;;;;6108485;23;20375;-77
2021/11/27 04:47:18;;;;;;;6.25;4.18;;;-0.50;99.90;;;;;;6100818;23;20472;-77
2021/11/27 04:49:47;;;;;;;5.95;4.18;;;-0.50;99.90;;;;;;6106080;23;20021;-77
2021/11/27 04:52:15;;;;;;;7.88;4.10;;;-0.40;99.90;;;;;;6108220;23;20014;-77
2021/11/27 04:54:42;;;;;;;3.33;3.05;;;-0.30;99.90;;;;;;6102325;23;20026;-77
2021/11/27 04:57:10;;;;;;;3.78;3.38;;;-0.30;99.90;;;;;;6108066;23;20471;-77
2021/11/27 04:59:38;;;;;;;9.85;4.55;;;-0.30;99.90;;;;;;6099393;23;20026;-77
2021/11/27 05:02:06;;;;;;;4.97;4.55;;;-0.30;99.90;;;;;;6130643;23;20034;-77
2021/11/27 05:04:36;;;;;;;6.03;3.88;;;-0.30;99.90;;;;;;6107998;23;20014;-78
2021/11/27 05:07:04;;;;;;;6.80;4.35;;;-0.30;99.90;;;;;;6101678;23;20022;-77
2021/11/27 05:09:33;;;;;;;5.40;4.35;;;-0.20;99.90;;;;;;6072303;23;20018;-77
2021/11/27 05:12:01;;;;;;;5.70;4.05;;;-0.20;99.90;;;;;;6108118;23;20025;-78
2021/11/27 05:14:29;;;;;;;7.90;5.50;;;-0.20;99.90;;;;;;6103957;23;20486;-77
2021/11/27 05:16:56;;;;;;;6.40;5.28;;;-0.20;99.90;;;;;;6134268;23;20010;-77
2021/11/27 05:19:24;;;;;;;5.80;4.90;;;-0.10;99.90;;;;;;6099827;23;20411;-77
2021/11/27 05:21:57;;;;;;;5.90;4.68;;;-0.10;99.90;;;;;;6105150;23;20021;-77
2021/11/27 05:24:25;;;;;;;4.82;3.85;;;-0.10;99.90;;;;;;6107467;23;20014;-77
2021/11/27 05:27:19;;;;;;;3.97;3.30;;;-0.10;99.90;;;;;;6100590;23;20033;-77
2021/11/27 05:30:11;;;;;;;6.03;5.35;;;-0.10;99.90;;;;;;6104921;23;20337;-77
2021/11/27 05:35:50;;;;;;;6.85;4.50;;;-0.10;99.90;;;;;;6098308;23;20040;-77
2021/11/27 05:38:18;;;;;;;4.55;3.45;;;-0.10;99.90;;;;;;6130747;23;20026;-77
2021/11/27 05:40:46;;;;;;;6.13;5.40;;;-0.10;99.90;;;;;;6106671;23;20025;-77
2021/11/27 05:43:14;;;;;;;6.60;5.60;;;-0.10;99.90;;;;;;6076798;23;20350;-77
2021/11/27 05:45:42;;;;;;;5.75;3.72;;;-0.10;99.90;;;;;;6106971;23;20017;-77
2021/11/27 05:48:10;;;;;;;5.55;4.10;;;-0.10;99.90;;;;;;6134098;23;20014;-77
2021/11/27 05:50:57;;;;;;;4.70;3.85;;;-0.10;99.90;;;;;;6126702;23;20025;-77
2021/11/27 05:53:25;;;;;;;4.15;3.70;;;-0.10;99.90;;;;;;6128834;23;20033;-77
2021/11/27 05:55:53;;;;;;;5.22;3.30;;;-0.10;99.90;;;;;;6122786;23;20473;-77
2021/11/27 05:58:22;;;;;;;2.63;2.42;;;-0.10;99.90;;;;;;6129967;23;20346;-77
2021/11/27 06:00:52;;;;;;;5.95;3.83;;;0.00;99.90;;;;;;6133676;23;20342;-77
2021/11/27 06:03:20;;;;;;;7.35;3.85;;;-0.10;99.90;;;;;;6125761;23;20025;-77
2021/11/27 06:05:47;;;;;;;8.18;4.10;;;-0.10;99.90;;;;;;6131341;23;20014;-77
2021/11/27 06:08:15;;;;;;;5.47;4.07;;;-0.20;99.90;;;;;;6133788;23;20033;-77
2021/11/27 06:10:43;;;;;;;7.93;4.70;;;-0.30;99.90;;;;;;6126823;23;20037;-77
2021/11/27 06:13:10;;;;;;;7.05;5.32;;;-0.30;99.90;;;;;;6133554;23;20019;-78
2021/11/27 06:15:38;;;;;;;5.78;5.28;;;-0.30;99.90;;;;;;6124486;23;20030;-77
2021/11/27 06:18:06;;;;;;;7.38;4.88;;;-0.30;99.90;;;;;;6130388;23;20026;-77
2021/11/27 06:20:34;;;;;;;5.78;5.13;;;-0.20;99.90;;;;;;6132694;23;20014;-77
2021/11/27 06:23:02;;;;;;;3.80;3.58;;;-0.20;99.90;;;;;;6126664;23;20034;-77
2021/11/27 06:25:30;;;;;;;5.22;3.70;;;-0.20;99.90;;;;;;6096530;23;20021;-77
2021/11/27 06:27:57;;;;;;;4.70;3.35;;;-0.20;99.90;;;;;;6122697;23;20025;-77
2021/11/27 06:30:25;;;;;;;6.30;4.63;;;-0.20;99.90;;;;;;6128920;23;20026;-77
2021/11/27 06:32:53;;;;;;;4.68;4.07;;;-0.20;99.90;;;;;;6132996;23;20014;-77
2021/11/27 06:35:21;;;;;;;5.60;4.43;;;-0.10;99.90;;;;;;6125080;23;20034;-78
2021/11/27 06:37:49;;;;;;;5.53;4.15;;;-0.10;99.90;;;;;;6131917;23;20021;-77
2021/11/27 06:40:16;;;;;;;4.47;4.05;;;-0.10;99.90;;;;;;6132789;23;20017;-77
2021/11/27 06:43:07;;;;;;;4.55;4.05;;;-0.10;99.90;;;;;;6107938;23;20030;-77
2021/11/27 06:45:53;;;;;;;8.88;5.25;;;-0.10;99.90;;;;;;6130995;23;20025;-78
2021/11/27 06:48:22;;;;;;;7.18;5.25;;;-0.10;99.90;;;;;;6107646;23;20025;-77
2021/11/27 06:50:49;;;;;;;4.80;4.28;;;-0.10;99.90;;;;;;6126721;23;20028;-77
2021/11/27 06:53:17;;;;;;;5.45;4.30;;;0.00;99.90;;;;;;6103491;23;20091;-77
2021/11/27 06:55:45;;;;;;;4.60;3.33;;;0.00;99.90;;;;;;6121885;23;20044;-77
2021/11/27 06:58:13;;;;;;;5.97;5.43;;;0.00;99.90;;;;;;6129909;23;20022;-77
2021/11/27 07:00:49;;;;;;;4.45;3.58;;;0.10;99.90;;;;;;6107008;23;20016;-77
2021/11/27 07:03:40;;;;;;;4.97;4.47;;;0.10;99.90;;;;;;6055776;23;20018;-77
2021/11/27 07:06:26;;;;;;;6.05;3.78;;;0.20;99.90;;;;;;6128181;23;20037;-77
2021/11/27 07:08:54;;;;;;;4.00;3.70;;;0.20;99.90;;;;;;6106717;23;20029;-77
2021/11/27 07:11:48;;;;;;;3.75;3.45;;;0.20;99.90;;;;;;6122372;23;20034;-77
2021/11/27 07:14:16;;;;;;;3.72;3.42;;;0.20;99.90;;;;;;6104037;23;20030;-77
2021/11/27 07:16:44;;;;;;;4.55;3.70;;;0.20;99.90;;;;;;6133423;23;20321;-77
2021/11/27 07:19:12;;;;;;;7.63;5.28;;;0.20;99.90;;;;;;6125897;23;20037;-77
2021/11/27 07:21:40;;;;;;;10.57;4.88;;;0.10;99.90;;;;;;6131894;23;20010;-77
2021/11/27 07:24:08;;;;;;;5.00;4.60;;;0.10;99.90;;;;;;6097101;23;20033;-77
2021/11/27 07:26:36;;;;;;;4.65;4.00;;;0.10;99.90;;;;;;6130065;23;20033;-77
2021/11/27 07:29:09;;;;;;;7.15;4.40;;;0.20;99.90;;;;;;6134943;23;20025;-77
2021/11/27 07:31:44;;;;;;;3.40;3.10;;;0.20;99.90;;;;;;6099370;23;20033;-77
2021/11/27 07:34:12;;;;;;;6.10;4.00;;;0.30;99.90;;;;;;6131267;23;20057;-77
2021/11/27 07:36:40;;;;;;;4.20;3.15;;;0.30;99.90;;;;;;6135244;23;20017;-77
2021/11/27 07:39:09;;;;;;;4.53;3.42;;;0.30;99.90;;;;;;6127118;23;20712;-77
2021/11/27 07:41:37;;;;;;;4.15;3.85;;;0.40;99.90;;;;;;6133445;23;20021;-77
2021/11/27 07:44:14;;;;;;;4.32;3.85;;;0.40;99.90;;;;;;6135119;23;20010;-77
2021/11/27 07:47:02;;;;;;;6.18;3.85;;;0.40;99.90;;;;;;6124191;23;20044;-77
2021/11/27 07:50:06;;;;;;;5.68;4.15;;;0.40;99.90;;;;;;6044546;23;20458;-78
2021/11/27 07:53:00;;;;;;;5.75;4.30;;;0.40;99.90;;;;;;6125381;23;20017;-77
2021/11/27 07:55:28;;;;;;;5.15;4.30;;;0.40;99.90;;;;;;6125511;23;20033;-77
2021/11/27 07:57:56;;;;;;;7.10;5.13;;;0.50;99.90;;;;;;6132364;23;20402;-77
2021/11/27 08:00:24;;;;;;;3.65;3.38;;;0.50;99.90;;;;;;6134405;23;20010;-77
2021/11/27 08:02:52;;;;;;;4.55;3.60;;;0.50;99.90;;;;;;6129058;23;20578;-77
2021/11/27 08:05:20;;;;;;;7.03;4.68;;;0.40;99.90;;;;;;6134623;23;20040;-77
2021/11/27 08:07:48;;;;;;;4.65;3.58;;;0.40;99.90;;;;;;6125371;23;20362;-77
2021/11/27 08:10:17;;;;;;;5.15;4.68;;;0.40;99.90;;;;;;6130228;23;20026;-77
2021/11/27 08:12:45;;;;;;;6.75;4.18;;;0.40;99.90;;;;;;6108736;23;20014;-78
2021/11/27 08:15:13;;;;;;;4.25;3.78;;;0.40;99.90;;;;;;6127555;23;20041;-77
2021/11/27 08:17:41;;;;;;;8.82;4.53;;;0.40;99.90;;;;;;6133852;23;20017;-75
2021/11/27 08:20:10;;;;;;;6.30;4.78;;;0.50;99.90;;;;;;6134345;23;20014;-76
2021/11/27 08:22:39;;;;;;;4.03;3.25;;;0.50;99.90;;;;;;6129464;23;20485;-77
2021/11/27 08:25:09;;;;;;;4.38;4.03;;;0.60;99.90;;;;;;6098117;23;20018;-77
2021/11/27 08:27:37;;;;;;;5.25;4.00;;;0.60;99.90;;;;;;6126026;23;20449;-76
2021/11/27 08:30:08;;;;;;;3.97;3.70;;;0.70;99.90;;;;;;6131309;23;20022;-76
2021/11/27 08:32:36;;;;;;;5.30;4.80;;;0.60;99.90;;;;;;6134690;23;20014;-75
2021/11/27 08:35:06;;;;;;;4.47;4.07;;;0.60;99.90;;;;;;6124063;23;20349;-75
2021/11/27 08:37:34;;;;;;;7.60;5.70;;;0.60;99.90;;;;;;6134387;23;20010;-77
2021/11/27 08:40:03;;;;;;;4.25;3.85;;;0.60;99.90;;;;;;6133153;23;20021;-76
2021/11/27 08:42:30;;;;;;;4.88;3.83;;;0.60;99.90;;;;;;6129942;23;20022;-75
2021/11/27 08:44:59;;;;;;;5.07;4.57;;;0.60;99.90;;;;;;6098426;23;20018;-77
2021/11/27 08:47:27;;;;;;;4.82;4.43;;;0.60;99.90;;;;;;6126160;23;20461;-77
2021/11/27 08:49:56;;;;;;;5.63;4.43;;;0.70;99.90;;;;;;6131766;23;20061;-77
2021/11/27 08:52:23;;;;;;;5.15;4.80;;;0.70;99.90;;;;;;6097822;23;20025;-76
2021/11/27 08:54:52;;;;;;;4.13;3.75;;;0.80;99.90;;;;;;6127373;23;20033;-77
2021/11/27 08:57:20;;;;;;;4.47;3.80;;;0.90;99.90;;;;;;6124635;23;20021;-77
2021/11/27 08:59:48;;;;;;;6.57;6.07;;;1.00;99.90;;;;;;6124222;23;20349;-77
2021/11/27 09:02:15;;;;;;;4.07;3.28;;;1.00;99.90;;;;;;6130544;23;20034;-77
2021/11/27 09:04:43;;;;;;;4.30;3.47;;;1.00;99.90;;;;;;6130767;23;20029;-77
2021/11/27 09:07:11;;;;;;;3.28;2.97;;;1.00;99.90;;;;;;6126792;23;20026;-77
2021/11/27 09:09:39;;;;;;;4.78;4.25;;;1.00;99.90;;;;;;6132146;23;20025;-77
2021/11/27 09:12:13;;;;;;;3.65;3.35;;;0.90;99.90;;;;;;6133696;23;20438;-77
2021/11/27 09:14:41;;;;;;;5.30;4.35;;;0.90;99.90;;;;;;6129110;23;20026;-77
2021/11/27 09:17:08;;;;;;;4.40;4.00;;;0.90;99.90;;;;;;6134516;23;20017;-77
2021/11/27 09:19:36;;;;;;;4.50;3.55;;;0.80;99.90;;;;;;6124598;23;20026;-77
2021/11/27 09:22:05;;;;;;;4.95;3.70;;;0.80;99.90;;;;;;6131351;23;20030;-77
2021/11/27 09:24:33;;;;;;;4.82;4.32;;;0.80;99.90;;;;;;6133253;23;20460;-77
2021/11/27 09:27:01;;;;;;;4.45;4.10;;;0.80;99.90;;;;;;6097736;23;20053;-77
2021/11/27 09:29:29;;;;;;;4.18;3.45;;;1.00;99.90;;;;;;6098363;23;20425;-77
2021/11/27 09:31:58;;;;;;;5.10;3.65;;;0.80;99.90;;;;;;6123352;23;20502;-77
2021/11/27 09:34:26;;;;;;;3.67;2.85;;;0.90;99.90;;;;;;6097049;23;20026;-76
2021/11/27 09:36:53;;;;;;;7.35;5.38;;;0.90;99.90;;;;;;6133797;23;20014;-76
2021/11/27 09:39:23;;;;;;;3.55;3.25;;;0.90;99.90;;;;;;6124747;23;20476;-77
2021/11/27 09:41:52;;;;;;;3.58;3.25;;;0.80;99.90;;;;;;6131575;23;20018;-78
2021/11/27 09:44:19;;;;;;;3.05;2.78;;;0.90;99.90;;;;;;6108453;23;20014;-79
2021/11/27 09:46:48;;;;;;;3.75;3.42;;;1.00;99.90;;;;;;6127467;23;20037;-78
2021/11/27 09:49:22;;;;;;;3.58;3.28;;;1.00;99.90;;;;;;6133699;23;20010;-88
2021/11/27 09:51:53;;;;;;;4.65;4.20;;;1.10;99.90;;;;;;6073353;23;20037;-83
2021/11/27 09:54:22;;;;;;;3.53;3.22;;;1.20;99.90;;;;;;6048912;23;20022;-84
2021/11/27 09:56:52;;;;;;;3.25;2.95;;;1.10;99.90;;;;;;6083844;23;20025;-76
2021/11/27 09:59:20;;;;;;;3.75;3.45;;;1.10;99.90;;;;;;6125213;23;20323;-76
2021/11/27 10:01:54;;;;;;;4.00;3.70;;;1.10;99.90;;;;;;6132014;23;20037;-77
2021/11/27 10:04:23;;;;;;;4.18;3.78;;;1.00;99.90;;;;;;6133577;23;20010;-77
2021/11/27 10:06:51;;;;;;;3.88;3.55;;;0.90;99.90;;;;;;6127780;23;20032;-77
2021/11/27 10:09:22;;;;;;;4.53;3.78;;;1.00;99.90;;;;;;6132867;23;20464;-76
2021/11/27 10:11:52;;;;;;;5.45;4.45;;;1.10;99.90;;;;;;6123191;23;20465;-79
2021/11/27 10:14:21;;;;;;;5.25;4.60;;;1.20;99.90;;;;;;6129832;23;20041;-79
2021/11/27 10:16:58;;;;;;;7.63;5.30;;;1.30;99.90;;;;;;6134059;23;20449;-85
2021/11/27 10:19:50;;;;;;;7.22;4.80;;;1.50;99.90;;;;;;6049626;23;20052;-79
2021/11/27 10:22:24;;;;;;;4.57;4.03;;;1.50;99.90;;;;;;6122959;23;20033;-78
2021/11/27 10:24:52;;;;;;;5.65;4.57;;;1.50;99.90;;;;;;6132809;23;20014;-79
2021/11/27 10:27:27;;;;;;;7.82;7.10;;;1.60;99.90;;;;;;6096960;23;20037;-79
2021/11/27 10:30:01;;;;;;;4.63;4.20;;;1.60;99.90;;;;;;6131220;23;20034;-78
2021/11/27 10:32:31;;;;;;;6.45;5.13;;;1.60;99.90;;;;;;6097435;23;20014;-79
2021/11/27 10:35:00;;;;;;;6.27;5.23;;;1.60;99.90;;;;;;6126847;23;20496;-79
2021/11/27 10:37:41;;;;;;;5.70;5.20;;;1.60;99.90;;;;;;6133413;23;20458;-79
2021/11/27 10:40:08;;;;;;;6.55;5.38;;;1.80;99.90;;;;;;6104435;23;20033;-77
2021/11/27 10:42:40;;;;;;;9.80;6.30;;;2.00;99.90;;;;;;6102420;23;20341;-77
2021/11/27 10:45:20;;;;;;;5.35;4.60;;;2.30;99.90;;;;;;6133292;23;20018;-77
2021/11/27 10:47:49;;;;;;;7.78;4.68;;;2.50;99.90;;;;;;6123432;23;20029;-77
2021/11/27 10:50:20;;;;;;;7.22;5.13;;;2.60;99.90;;;;;;6128975;23;20468;-77
2021/11/27 10:52:50;;;;;;;4.82;4.05;;;2.60;99.90;;;;;;6097171;23;20033;-78
2021/11/27 10:55:51;;;;;;;8.93;8.07;;;2.60;99.90;;;;;;6097268;23;20450;-80
2021/11/27 10:58:19;;;;;;;8.70;6.18;;;2.70;99.90;;;;;;6129421;23;20022;-80
2021/11/27 11:00:50;;;;;;;8.45;6.32;;;2.60;99.90;;;;;;6073788;23;20021;-80
2021/11/27 11:03:24;;;;;;;;;;;2.70;99.90;;;;;;6097731;23;20041;-80
2021/11/27 11:05:55;;;;;;;4.95;4.43;;;2.80;99.90;;;;;;6131120;23;19943;-81
2021/11/27 11:08:37;;;;;;;6.45;5.40;;;2.70;99.90;;;;;;6097681;23;20041;-81
2021/11/27 11:11:20;;;;;;;5.30;4.85;;;2.80;99.90;;;;;;6073005;23;20030;-80
2021/11/27 11:13:56;;;;;;;4.68;3.97;;;2.70;99.90;;;;;;6050090;23;20023;-81
2021/11/27 11:16:31;;;;;;;6.72;3.83;;;2.70;99.90;;;;;;6133993;23;20330;-81
2021/11/27 11:19:20;;;;;;;4.40;4.07;;;2.70;99.90;;;;;;6097298;23;20033;-80
2021/11/27 11:22:12;;;;;;;4.03;3.72;;;2.70;99.90;;;;;;6131472;23;20017;-80
2021/11/27 11:24:43;;;;;;;6.30;4.72;;;2.60;99.90;;;;;;6106829;23;20018;-82
2021/11/27 11:27:32;;;;;;;6.00;5.43;;;2.60;99.90;;;;;;6097358;23;20025;-82
2021/11/27 11:30:02;;;;;;;6.05;4.30;;;2.60;99.90;;;;;;6131471;23;20029;-82
2021/11/27 11:32:30;;;;;;;5.70;5.15;;;2.50;99.90;;;;;;6073651;23;20025;-78
2021/11/27 11:35:03;;;;;;;4.75;4.35;;;2.60;99.90;;;;;;6101440;23;20025;-78
2021/11/27 11:37:32;;;;;;;4.97;4.35;;;2.60;99.90;;;;;;6133491;23;20026;-75
2021/11/27 11:39:59;;;;;;;5.60;5.00;;;2.70;99.90;;;;;;6121228;23;20025;-75
2021/11/27 11:42:29;;;;;;;7.38;6.53;;;2.70;99.90;;;;;;6102743;23;20037;-74
2021/11/27 11:44:57;;;;;;;5.45;4.80;;;2.70;99.90;;;;;;6132813;23;20071;-75
2021/11/27 11:47:25;;;;;;;7.05;6.45;;;2.80;99.90;;;;;;6124297;23;20033;-76
2021/11/27 11:49:57;;;;;;;6.13;5.18;;;2.90;99.90;;;;;;6130520;23;20029;-76
2021/11/27 11:52:44;;;;;;;4.22;3.90;;;2.90;99.90;;;;;;6132224;23;20009;-75
2021/11/27 11:55:16;;;;;;;7.60;6.65;;;2.80;99.90;;;;;;6124176;23;20314;-75
2021/11/27 11:57:49;;;;;;;5.75;5.15;;;2.80;99.90;;;;;;6096698;23;20025;-76
2021/11/27 12:00:20;;;;;;;6.20;4.78;;;2.90;99.90;;;;;;6096856;23;20026;-75
2021/11/27 12:02:48;;;;;;;5.10;4.23;;;2.90;99.90;;;;;;6126352;23;20030;-76
2021/11/27 12:05:18;;;;;;;5.93;5.43;;;2.90;99.90;;;;;;6132732;23;20019;-76
2021/11/27 12:07:48;;;;;;;4.55;4.07;;;2.90;99.90;;;;;;6123282;23;20536;-76
2021/11/27 12:10:45;;;;;;;5.72;5.15;;;3.00;99.90;;;;;;6127479;23;20343;-75
2021/11/27 12:13:16;;;;;;;4.28;3.75;;;2.90;99.90;;;;;;6127985;23;20010;-76
2021/11/27 12:15:47;;;;;;;5.80;5.05;;;3.00;99.90;;;;;;6124924;23;20026;-75
2021/11/27 12:18:19;;;;;;;5.93;4.43;;;3.10;99.90;;;;;;6105467;23;20033;-75
2021/11/27 12:20:47;;;;;;;6.68;4.30;;;3.20;99.90;;;;;;6098059;23;20025;-76
2021/11/27 12:23:35;;;;;;;4.35;3.95;;;3.10;99.90;;;;;;6100830;23;20029;-76
2021/11/27 12:26:09;;;;;;;5.32;3.33;;;3.10;99.90;;;;;;6131225;23;20026;-76
2021/11/27 12:28:49;;;;;;;8.52;7.32;;;3.00;99.90;;;;;;6134302;23;20014;-76
2021/11/27 12:31:23;;;;;;;6.13;4.85;;;3.00;99.90;;;;;;6125705;23;20029;-75
2021/11/27 12:33:54;;;;;;;6.20;4.00;;;3.10;99.90;;;;;;6132052;23;20023;-75
2021/11/27 12:36:35;;;;;;;4.00;3.47;;;3.00;99.90;;;;;;6134362;23;20021;-75
2021/11/27 12:39:11;;;;;;;5.90;4.97;;;3.00;99.90;;;;;;6126685;23;20249;-75
2021/11/27 12:41:39;;;;;;;8.52;5.95;;;2.90;99.90;;;;;;6132433;23;20017;-76
2021/11/27 12:44:16;;;;;;;8.15;6.03;;;2.80;99.90;;;;;;6133993;23;20018;-75
2021/11/27 12:46:50;;;;;;;6.78;5.70;;;2.80;99.90;;;;;;6128665;23;20026;-75
2021/11/27 12:49:30;;;;;;;8.50;6.05;;;2.70;99.90;;;;;;6133969;23;20014;-75
2021/11/27 12:52:16;;;;;;;7.50;6.72;;;2.70;99.90;;;;;;6122663;23;20053;-75
2021/11/27 12:54:48;;;;;;;9.88;6.53;;;2.70;99.90;;;;;;6127914;23;20026;-75
2021/11/27 12:57:36;;;;;;;15.90;11.35;;;2.70;99.90;;;;;;6134345;23;20048;-75
2021/11/27 13:00:16;;;;;;;6.53;5.93;;;2.60;99.90;;;;;;6122669;23;20350;-76
2021/11/27 13:03:00;;;;;;;7.05;5.45;;;2.60;99.90;;;;;;6127993;23;20469;-75
2021/11/27 13:05:41;;;;;;;6.40;5.38;;;2.50;99.90;;;;;;6133990;23;20445;-76
2021/11/27 13:08:12;;;;;;;5.93;5.38;;;2.50;99.90;;;;;;6130587;23;20462;-76
2021/11/27 13:10:45;;;;;;;8.85;5.38;;;2.50;99.90;;;;;;6096087;23;20033;-75
2021/11/27 13:13:21;;;;;;;8.00;6.60;;;2.50;99.90;;;;;;6133909;23;20017;-76
2021/11/27 13:15:52;;;;;;;5.50;4.78;;;2.60;99.90;;;;;;6123929;23;20025;-75
2021/11/27 13:18:26;;;;;;;7.28;5.88;;;2.50;99.90;;;;;;6130298;23;20457;-75